EGLL/LHR METAR and TAF weather

Enter ICAO airport designator
Station Type Date Time Source
EGLL METAR 2022/06/27 18:20 UTC NOAA

EGLL 271820Z AUTO 22011KT 9999 NCD 17/09 Q1018


Station Type Date Time Source
EGLL Decoded METAR 2022/06/27 18:20 UTC NOAA

London / Heathrow Airport, United Kingdom (EGLL) 51-29N 000-27W 0M
Jun 27, 2022 - 02:20 PM EDT / 2022.06.27 1820 UTC
Wind: from the SW (220 degrees) at 13 MPH (11 KT):0
Visibility: greater than 7 mile(s):0
Temperature: 62 F (17 C)
Dew Point: 48 F (9 C)
Relative Humidity: 59%
Pressure (altimeter): 30.06 in. Hg (1018 hPa)
ob: EGLL 271820Z AUTO 22011KT 9999 NCD 17/09 Q1018
cycle: 18

Station Type Date Time Source
EGLL TAF 2022/06/27 18:10 UTC NOAA

TAF EGLL 271701Z 2718/2824 23008KT 9999 SCT040 PROB40
TEMPO 2809/2816 20015G25KT

Example: see airport list